createdAt,value
2023-05-21T00:02:20.065Z,9.43
2023-05-21T00:04:46.883Z,9.23
2023-05-21T00:07:13.474Z,8.75
2023-05-21T00:09:40.035Z,9.18
2023-05-21T00:12:10.117Z,8.20
2023-05-21T00:14:36.696Z,9.45
2023-05-21T00:17:03.259Z,9.40
2023-05-21T00:19:29.930Z,8.30
2023-05-21T00:21:57.658Z,9.30
2023-05-21T00:24:24.266Z,9.07
2023-05-21T00:26:50.976Z,9.27
2023-05-21T00:29:17.811Z,9.23
2023-05-21T00:31:44.436Z,8.63
2023-05-21T00:34:10.985Z,9.35
2023-05-21T00:36:38.050Z,9.32
2023-05-21T00:39:05.744Z,10.07
2023-05-21T00:41:32.263Z,10.18
2023-05-21T00:44:00.358Z,10.07
2023-05-21T00:46:28.536Z,9.43
2023-05-21T00:48:55.122Z,9.15
2023-05-21T00:51:21.978Z,9.13
2023-05-21T00:53:51.367Z,10.48
2023-05-21T00:56:19.383Z,9.63
2023-05-21T00:58:46.031Z,10.27
2023-05-21T01:01:13.982Z,10.27
2023-05-21T01:03:41.039Z,10.13
2023-05-21T01:06:08.952Z,9.88
2023-05-21T01:08:36.241Z,10.00
2023-05-21T01:11:02.936Z,10.90
2023-05-21T01:13:29.641Z,9.52
2023-05-21T01:15:58.020Z,10.18
2023-05-21T01:18:24.545Z,9.93
2023-05-21T01:20:52.545Z,10.30
2023-05-21T01:23:19.435Z,10.77
2023-05-21T01:25:46.348Z,10.05
2023-05-21T01:28:13.383Z,10.52
2023-05-21T01:30:40.400Z,10.15
2023-05-21T01:33:32.578Z,10.23
2023-05-21T01:36:16.071Z,10.07
2023-05-21T01:38:44.834Z,11.18
2023-05-21T01:41:11.559Z,10.40
2023-05-21T01:43:39.409Z,10.23
2023-05-21T01:46:06.311Z,10.65
2023-05-21T01:48:32.845Z,9.88
2023-05-21T01:51:00.961Z,10.45
2023-05-21T01:53:27.534Z,10.80
2023-05-21T01:55:54.577Z,9.65
2023-05-21T01:58:22.719Z,10.48
2023-05-21T02:00:51.103Z,9.95
2023-05-21T02:03:18.800Z,11.10
2023-05-21T02:05:45.821Z,12.20
2023-05-21T02:08:12.912Z,11.65
2023-05-21T02:10:39.423Z,11.18
2023-05-21T02:13:05.938Z,10.82
2023-05-21T02:15:34.883Z,11.07
2023-05-21T02:18:01.774Z,11.85
2023-05-21T02:20:28.400Z,10.45
2023-05-21T02:22:55.023Z,10.93
2023-05-21T02:25:21.551Z,10.68
2023-05-21T02:27:48.151Z,10.77
2023-05-21T02:30:15.543Z,10.07
2023-05-21T02:32:43.035Z,10.93
2023-05-21T02:35:11.246Z,12.25
2023-05-21T02:37:37.879Z,10.80
2023-05-21T02:40:05.934Z,12.45
2023-05-21T02:42:32.464Z,11.10
2023-05-21T02:44:59.040Z,11.95
2023-05-21T02:47:25.865Z,11.90
2023-05-21T02:49:53.017Z,12.45
2023-05-21T02:52:19.933Z,11.88
2023-05-21T02:54:46.974Z,12.05
2023-05-21T02:57:13.570Z,11.90
2023-05-21T02:59:40.148Z,12.43
2023-05-21T03:02:06.872Z,11.98
2023-05-21T03:04:39.228Z,12.52
2023-05-21T03:07:06.158Z,11.63
2023-05-21T03:09:32.674Z,11.88
2023-05-21T03:11:59.233Z,11.68
2023-05-21T03:14:25.837Z,11.93
2023-05-21T03:16:52.470Z,12.85
2023-05-21T03:19:19.148Z,12.57
2023-05-21T03:21:45.774Z,12.40
2023-05-21T03:24:13.712Z,12.20
2023-05-21T03:26:40.274Z,12.43
2023-05-21T03:29:06.890Z,11.73
2023-05-21T03:31:33.477Z,11.60
2023-05-21T03:34:00.036Z,11.95
2023-05-21T03:36:26.611Z,11.02
2023-05-21T03:38:53.120Z,11.38
2023-05-21T03:41:19.675Z,11.65
2023-05-21T03:43:46.225Z,12.18
2023-05-21T03:46:12.734Z,12.10
2023-05-21T03:48:39.306Z,12.20
2023-05-21T03:51:05.928Z,13.45
2023-05-21T03:53:33.653Z,12.38
2023-05-21T03:56:00.160Z,12.35
2023-05-21T03:58:26.878Z,12.10
2023-05-21T04:00:53.492Z,12.25
2023-05-21T04:03:20.163Z,12.05
2023-05-21T04:05:46.763Z,11.77
2023-05-21T04:08:13.549Z,12.98
2023-05-21T04:10:40.110Z,12.05
2023-05-21T04:13:06.799Z,11.48
2023-05-21T04:15:34.731Z,12.52
2023-05-21T04:18:01.611Z,12.00
2023-05-21T04:20:28.265Z,12.05
2023-05-21T04:22:54.816Z,11.38
2023-05-21T04:25:22.996Z,11.57
2023-05-21T04:27:50.219Z,11.43
2023-05-21T04:30:16.770Z,11.38
2023-05-21T04:32:45.885Z,11.27
2023-05-21T04:35:15.145Z,11.68
2023-05-21T04:37:42.168Z,12.02
2023-05-21T04:40:09.677Z,11.85
2023-05-21T04:42:36.332Z,12.75
2023-05-21T04:45:02.902Z,10.75
2023-05-21T04:47:35.492Z,13.93
2023-05-21T04:50:02.566Z,11.10
2023-05-21T04:52:29.088Z,11.20
2023-05-21T04:54:55.684Z,11.40
2023-05-21T04:57:24.557Z,10.70
2023-05-21T04:59:51.113Z,11.07
2023-05-21T05:02:17.617Z,11.50
2023-05-21T05:04:44.179Z,10.82
2023-05-21T05:07:10.749Z,11.70
2023-05-21T05:09:37.309Z,11.70
2023-05-21T05:12:04.169Z,11.07
2023-05-21T05:14:31.047Z,11.30
2023-05-21T05:17:00.620Z,11.40
2023-05-21T05:19:27.422Z,10.90
2023-05-21T05:21:54.214Z,10.75
2023-05-21T05:24:20.882Z,10.98
2023-05-21T05:26:47.552Z,11.32
2023-05-21T05:29:14.082Z,11.13
2023-05-21T05:31:40.641Z,10.93
2023-05-21T05:34:07.262Z,10.80
2023-05-21T05:36:33.788Z,11.48
2023-05-21T05:39:00.336Z,10.73
2023-05-21T05:41:27.221Z,10.68
2023-05-21T05:43:53.742Z,11.18
2023-05-21T05:46:20.410Z,11.30
2023-05-21T05:48:47.001Z,9.90
2023-05-21T05:51:15.289Z,10.95
2023-05-21T05:53:41.818Z,10.95
2023-05-21T05:56:08.412Z,10.40
2023-05-21T05:58:34.943Z,10.35
2023-05-21T06:01:02.185Z,10.90
2023-05-21T06:03:29.783Z,10.63
2023-05-21T06:05:56.433Z,10.82
2023-05-21T06:08:23.352Z,10.48
2023-05-21T06:10:50.022Z,10.45
2023-05-21T06:13:16.532Z,10.02
2023-05-21T06:15:43.398Z,10.95
2023-05-21T06:18:10.156Z,10.98
2023-05-21T06:20:37.128Z,10.10
2023-05-21T06:23:03.693Z,10.40
2023-05-21T06:25:30.256Z,10.85
2023-05-21T06:27:56.905Z,11.05
2023-05-21T06:30:23.395Z,10.43
2023-05-21T06:32:50.093Z,11.00
2023-05-21T06:35:16.770Z,10.07
2023-05-21T06:37:43.305Z,11.20
2023-05-21T06:40:10.140Z,10.48
2023-05-21T06:42:36.718Z,11.35
2023-05-21T06:45:03.415Z,11.20
2023-05-21T06:47:30.013Z,10.93
2023-05-21T06:49:56.641Z,10.77
2023-05-21T06:52:23.203Z,11.02
2023-05-21T06:54:49.738Z,10.10
2023-05-21T06:57:16.313Z,10.40
2023-05-21T06:59:42.883Z,10.18
2023-05-21T07:02:09.489Z,9.77
2023-05-21T07:04:36.399Z,10.60
2023-05-21T07:07:05.054Z,10.43
2023-05-21T07:09:31.800Z,9.95
2023-05-21T07:11:58.337Z,10.35
2023-05-21T07:14:27.687Z,10.32
2023-05-21T07:16:54.269Z,11.40
2023-05-21T07:19:21.199Z,10.10
2023-05-21T07:21:47.800Z,10.10
2023-05-21T07:24:14.319Z,10.50
2023-05-21T07:26:41.116Z,10.82
2023-05-21T07:29:07.655Z,8.65
2023-05-21T07:31:34.391Z,9.75
2023-05-21T07:34:01.058Z,9.80
2023-05-21T07:36:27.669Z,10.10
2023-05-21T07:38:54.820Z,9.63
2023-05-21T07:41:22.045Z,9.68
2023-05-21T07:43:48.714Z,10.20
2023-05-21T07:46:15.254Z,9.48
2023-05-21T07:48:41.845Z,8.95
2023-05-21T07:51:08.372Z,9.43
2023-05-21T07:53:35.020Z,9.15
2023-05-21T07:56:01.530Z,9.70
2023-05-21T07:58:28.023Z,8.70
2023-05-21T08:00:54.684Z,9.13
2023-05-21T08:03:21.340Z,9.25
2023-05-21T08:05:50.931Z,9.20
2023-05-21T08:08:22.016Z,9.82
2023-05-21T08:10:48.629Z,9.05
2023-05-21T08:13:15.818Z,9.25
2023-05-21T08:15:42.380Z,9.05
2023-05-21T08:18:09.131Z,8.73
2023-05-21T08:20:35.657Z,8.80
2023-05-21T08:23:02.210Z,8.80
2023-05-21T08:25:28.842Z,9.13
2023-05-21T08:27:55.558Z,8.98
2023-05-21T08:30:22.212Z,9.35
2023-05-21T08:32:48.999Z,9.10
2023-05-21T08:35:15.579Z,9.98
2023-05-21T08:37:42.203Z,9.07
2023-05-21T08:40:09.295Z,8.70
2023-05-21T08:42:46.691Z,9.73
2023-05-21T08:45:14.073Z,9.23
2023-05-21T08:47:44.166Z,8.98
2023-05-21T08:50:12.086Z,9.55
2023-05-21T08:52:38.637Z,9.38
2023-05-21T08:55:05.997Z,9.55
2023-05-21T08:57:32.668Z,9.02
2023-05-21T08:59:59.686Z,9.23
2023-05-21T09:02:26.282Z,9.30
2023-05-21T09:04:57.191Z,8.93
2023-05-21T09:07:30.484Z,9.25
2023-05-21T09:09:58.307Z,9.65
2023-05-21T09:12:25.548Z,8.07
2023-05-21T09:14:52.140Z,8.95
2023-05-21T09:17:20.271Z,8.38
2023-05-21T09:20:16.036Z,8.63
2023-05-21T09:22:46.412Z,7.72
2023-05-21T09:25:17.119Z,9.60
2023-05-21T09:27:43.722Z,8.30
2023-05-21T09:30:11.836Z,8.07
2023-05-21T09:32:41.428Z,7.40
2023-05-21T09:35:14.181Z,7.50
2023-05-21T09:37:45.095Z,8.27
2023-05-21T09:40:13.199Z,7.85
2023-05-21T09:42:40.597Z,7.20
2023-05-21T09:45:10.439Z,6.95
2023-05-21T09:47:46.168Z,7.18
2023-05-21T09:50:33.296Z,7.00
2023-05-21T09:52:59.837Z,7.60
2023-05-21T09:55:26.585Z,7.00
2023-05-21T09:57:53.241Z,7.53
2023-05-21T10:00:21.542Z,7.03
2023-05-21T10:02:49.249Z,6.47
2023-05-21T10:05:16.551Z,6.97
2023-05-21T10:07:45.597Z,6.32
2023-05-21T10:10:14.045Z,6.45
2023-05-21T10:12:47.348Z,7.00
2023-05-21T10:15:16.250Z,7.47
2023-05-21T10:17:43.520Z,6.00
2023-05-21T10:20:13.093Z,6.50
2023-05-21T10:22:40.416Z,6.03
2023-05-21T10:25:08.100Z,6.18
2023-05-21T10:27:37.681Z,6.15
2023-05-21T10:30:05.725Z,6.18
2023-05-21T10:32:32.670Z,6.50
2023-05-21T10:35:01.457Z,6.68
2023-05-21T10:37:28.561Z,6.43
2023-05-21T10:39:55.741Z,5.90
2023-05-21T10:42:31.344Z,5.82
2023-05-21T10:45:08.786Z,6.13
2023-05-21T10:48:19.639Z,5.65
2023-05-21T10:51:01.668Z,5.65
2023-05-21T10:53:55.715Z,5.95
2023-05-21T10:56:32.874Z,5.85
2023-05-21T10:59:12.456Z,5.78
2023-05-21T11:01:40.019Z,5.85
2023-05-21T11:04:06.678Z,5.30
2023-05-21T11:06:33.267Z,5.82
2023-05-21T11:09:15.396Z,6.18
2023-05-21T11:11:42.884Z,6.72
2023-05-21T11:14:38.852Z,6.35
2023-05-21T11:17:08.121Z,5.70
2023-05-21T11:19:39.022Z,6.63
2023-05-21T11:22:22.010Z,5.57
2023-05-21T11:24:50.880Z,5.68
2023-05-21T11:27:44.129Z,6.20
2023-05-21T11:30:15.546Z,5.80
2023-05-21T11:33:07.352Z,6.15
2023-05-21T11:35:46.152Z,5.40
2023-05-21T11:38:12.714Z,6.13
2023-05-21T11:40:46.566Z,5.78
2023-05-21T11:43:13.091Z,6.22
2023-05-21T11:45:39.603Z,5.32
2023-05-21T11:48:06.773Z,6.30
2023-05-21T11:50:34.166Z,5.68
2023-05-21T11:53:00.863Z,6.40
2023-05-21T11:55:27.473Z,6.22
2023-05-21T11:57:54.565Z,5.55
2023-05-21T12:00:21.673Z,5.90
2023-05-21T12:02:52.998Z,5.80
2023-05-21T12:05:20.394Z,5.65
2023-05-21T12:07:48.925Z,5.82
2023-05-21T12:10:15.638Z,5.70
2023-05-21T12:12:53.777Z,5.78
2023-05-21T12:15:22.742Z,6.10
2023-05-21T12:17:50.142Z,6.22
2023-05-21T12:20:17.122Z,5.35
2023-05-21T12:22:44.707Z,6.38
2023-05-21T12:25:12.135Z,6.05
2023-05-21T12:27:38.710Z,5.95
2023-05-21T12:30:05.869Z,5.38
2023-05-21T12:32:32.510Z,5.60
2023-05-21T12:34:59.099Z,5.70
2023-05-21T12:37:26.892Z,6.13
2023-05-21T12:39:54.508Z,5.78
2023-05-21T12:42:28.197Z,6.35
2023-05-21T12:44:54.811Z,5.57
2023-05-21T12:47:26.581Z,5.82
2023-05-21T12:50:03.813Z,5.82
2023-05-21T12:52:33.242Z,5.43
2023-05-21T12:54:59.875Z,6.10
2023-05-21T12:57:37.104Z,5.57
2023-05-21T13:00:06.484Z,5.20
2023-05-21T13:02:35.183Z,5.35
2023-05-21T13:05:05.585Z,5.45
2023-05-21T13:07:33.008Z,5.85
2023-05-21T13:09:59.794Z,5.10
2023-05-21T13:12:27.605Z,5.65
2023-05-21T13:14:55.601Z,5.40
2023-05-21T13:17:22.322Z,5.80
2023-05-21T13:20:14.245Z,5.40
2023-05-21T13:22:42.497Z,5.18
2023-05-21T13:25:15.791Z,5.18
2023-05-21T13:27:42.760Z,5.20
2023-05-21T13:30:11.326Z,5.70
2023-05-21T13:32:38.474Z,5.07
2023-05-21T13:35:05.496Z,5.47
2023-05-21T13:37:32.246Z,5.70
2023-05-21T13:39:58.890Z,5.72
2023-05-21T13:42:25.483Z,5.65
2023-05-21T13:44:52.028Z,6.05
2023-05-21T13:47:18.706Z,6.25
2023-05-21T13:49:45.387Z,5.22
2023-05-21T13:52:11.907Z,5.75
2023-05-21T13:54:38.514Z,5.60
2023-05-21T13:57:05.101Z,5.65
2023-05-21T13:59:33.701Z,4.68
2023-05-21T14:02:00.876Z,5.43
2023-05-21T14:04:27.430Z,5.63
2023-05-21T14:06:54.034Z,5.55
2023-05-21T14:09:21.363Z,5.03
2023-05-21T14:11:47.903Z,5.35
2023-05-21T14:14:18.789Z,5.30
2023-05-21T14:16:47.178Z,5.40
2023-05-21T14:19:13.965Z,5.63
2023-05-21T14:21:40.944Z,4.97
2023-05-21T14:24:07.732Z,5.75
2023-05-21T14:26:36.652Z,5.32
2023-05-21T14:29:03.203Z,5.18
2023-05-21T14:31:29.910Z,5.20
2023-05-21T14:33:56.457Z,5.50
2023-05-21T14:36:22.970Z,5.43
2023-05-21T14:38:49.516Z,5.05
2023-05-21T14:41:16.042Z,5.32
2023-05-21T14:43:42.580Z,5.28
2023-05-21T14:46:09.143Z,5.57
2023-05-21T14:48:35.849Z,5.22
2023-05-21T14:51:02.357Z,5.55
2023-05-21T14:53:28.987Z,4.95
2023-05-21T14:55:55.604Z,4.95
2023-05-21T14:58:22.142Z,5.90
2023-05-21T15:00:48.883Z,4.97
2023-05-21T15:03:16.290Z,4.78
2023-05-21T15:05:42.847Z,5.00
2023-05-21T15:08:09.739Z,5.35
2023-05-21T15:10:36.261Z,4.78
2023-05-21T15:13:02.828Z,4.57
2023-05-21T15:15:29.387Z,4.93
2023-05-21T15:17:57.661Z,5.13
2023-05-21T15:20:24.358Z,5.22
2023-05-21T15:22:52.348Z,5.10
2023-05-21T15:25:21.678Z,5.00
2023-05-21T15:27:50.386Z,5.25
2023-05-21T15:30:17.269Z,5.30
2023-05-21T15:32:43.882Z,5.15
2023-05-21T15:35:10.590Z,5.13
2023-05-21T15:37:37.224Z,4.82
2023-05-21T15:40:04.103Z,5.20
2023-05-21T15:42:31.813Z,5.63
2023-05-21T15:44:58.643Z,5.07
2023-05-21T15:47:25.178Z,5.03
2023-05-21T15:49:51.882Z,5.18
2023-05-21T15:52:19.821Z,5.13
2023-05-21T15:54:46.962Z,5.10
2023-05-21T15:57:13.509Z,4.95
2023-05-21T15:59:40.182Z,5.22
2023-05-21T16:02:07.270Z,4.80
2023-05-21T16:04:33.916Z,4.97
2023-05-21T16:07:00.535Z,4.50
2023-05-21T16:09:27.079Z,5.05
2023-05-21T16:11:53.600Z,4.70
2023-05-21T16:14:20.360Z,5.45
2023-05-21T16:16:46.931Z,5.00
2023-05-21T16:19:13.488Z,5.03
2023-05-21T16:21:40.120Z,4.57
2023-05-21T16:24:06.770Z,4.78
2023-05-21T16:26:33.262Z,4.85
2023-05-21T16:29:02.289Z,4.80
2023-05-21T16:31:28.991Z,4.85
2023-05-21T16:33:55.850Z,5.00
2023-05-21T16:36:22.618Z,4.88
2023-05-21T16:38:49.322Z,5.15
2023-05-21T16:41:16.262Z,4.75
2023-05-21T16:43:42.840Z,5.05
2023-05-21T16:46:09.397Z,4.72
2023-05-21T16:48:38.039Z,4.43
2023-05-21T16:51:05.001Z,4.85
2023-05-21T16:53:31.779Z,4.70
2023-05-21T16:55:58.970Z,5.03
2023-05-21T16:58:25.628Z,4.90
2023-05-21T17:00:52.163Z,4.63
2023-05-21T17:03:19.000Z,5.00
2023-05-21T17:05:45.667Z,4.63
2023-05-21T17:08:12.467Z,5.00
2023-05-21T17:10:40.210Z,4.47
2023-05-21T17:13:20.943Z,4.93
2023-05-21T17:18:15.735Z,5.10
2023-05-21T17:20:43.672Z,5.35
2023-05-21T17:23:11.476Z,5.40
2023-05-21T17:25:38.236Z,4.75
2023-05-21T17:28:05.166Z,5.30
2023-05-21T17:30:31.779Z,4.72
2023-05-21T17:32:58.440Z,4.95
2023-05-21T17:35:25.089Z,5.22
2023-05-21T17:37:53.248Z,5.13
2023-05-21T17:40:21.469Z,5.57
2023-05-21T17:42:48.538Z,4.68
2023-05-21T17:45:15.092Z,5.03
2023-05-21T17:47:41.700Z,5.28
2023-05-21T17:50:08.767Z,5.30
2023-05-21T17:52:35.359Z,5.20
2023-05-21T17:55:02.005Z,5.40
2023-05-21T17:57:28.629Z,5.25
2023-05-21T17:59:55.606Z,5.55
2023-05-21T18:02:23.638Z,5.35
2023-05-21T18:04:50.349Z,5.18
2023-05-21T18:07:17.384Z,5.10
2023-05-21T18:09:43.954Z,5.07
2023-05-21T18:12:10.986Z,5.40
2023-05-21T18:14:37.552Z,5.05
2023-05-21T18:17:04.305Z,5.03
2023-05-21T18:19:31.458Z,5.65
2023-05-21T18:21:58.108Z,5.50
2023-05-21T18:24:24.950Z,5.63
2023-05-21T18:26:51.568Z,5.47
2023-05-21T18:29:18.152Z,6.03
2023-05-21T18:31:45.577Z,6.20
2023-05-21T18:34:12.299Z,5.90
2023-05-21T18:36:39.070Z,5.70
2023-05-21T18:39:07.033Z,5.93
2023-05-21T18:41:33.699Z,6.03
2023-05-21T18:44:01.728Z,6.50
2023-05-21T18:46:28.833Z,6.60
2023-05-21T18:48:55.988Z,6.40
2023-05-21T18:51:22.606Z,6.65
2023-05-21T18:53:49.204Z,6.68
2023-05-21T18:56:15.830Z,6.50
2023-05-21T18:58:42.353Z,6.60
2023-05-21T19:01:08.928Z,7.30
2023-05-21T19:03:35.428Z,6.43
2023-05-21T19:06:02.061Z,7.63
2023-05-21T19:08:28.793Z,6.32
2023-05-21T19:10:55.344Z,6.93
2023-05-21T19:13:22.468Z,6.95
2023-05-21T19:15:49.124Z,6.90
2023-05-21T19:18:17.150Z,7.03
2023-05-21T19:20:43.784Z,7.32
2023-05-21T19:23:10.587Z,6.97
2023-05-21T19:25:37.508Z,7.63
2023-05-21T19:28:04.076Z,7.35
2023-05-21T19:30:30.759Z,7.32
2023-05-21T19:32:57.469Z,7.60
2023-05-21T19:35:24.152Z,8.38
2023-05-21T19:37:50.893Z,7.68
2023-05-21T19:40:17.783Z,6.93
2023-05-21T19:42:44.743Z,7.57
2023-05-21T19:45:11.852Z,7.95
2023-05-21T19:47:40.992Z,7.43
2023-05-21T19:50:08.215Z,6.85
2023-05-21T19:52:35.316Z,7.55
2023-05-21T19:55:05.652Z,7.53
2023-05-21T19:57:32.524Z,7.50
2023-05-21T19:59:59.182Z,8.35
2023-05-21T20:02:25.865Z,8.63
2023-05-21T20:04:53.426Z,7.35
2023-05-21T20:07:19.998Z,8.27
2023-05-21T20:09:46.603Z,8.27
2023-05-21T20:12:13.136Z,8.07
2023-05-21T20:14:39.713Z,8.15
2023-05-21T20:17:07.037Z,8.73
2023-05-21T20:19:34.341Z,8.10
2023-05-21T20:22:00.984Z,8.10
2023-05-21T20:24:27.525Z,8.05
2023-05-21T20:26:54.881Z,8.18
2023-05-21T20:29:21.442Z,7.82
2023-05-21T20:31:47.986Z,7.88
2023-05-21T20:34:17.508Z,10.15
2023-05-21T20:36:44.076Z,8.65
2023-05-21T20:39:12.031Z,7.97
2023-05-21T20:41:38.777Z,8.27
2023-05-21T20:44:05.733Z,8.45
2023-05-21T20:46:32.766Z,7.93
2023-05-21T20:48:59.955Z,9.27
2023-05-21T20:51:27.292Z,8.18
2023-05-21T20:53:53.872Z,7.97
2023-05-21T20:56:29.865Z,8.55
2023-05-21T20:59:08.584Z,7.82
2023-05-21T21:01:37.864Z,8.45
2023-05-21T21:04:05.001Z,8.50
2023-05-21T21:06:31.899Z,8.35
2023-05-21T21:08:58.617Z,8.68
2023-05-21T21:11:25.234Z,7.85
2023-05-21T21:13:52.009Z,8.82
2023-05-21T21:16:18.661Z,9.50
2023-05-21T21:18:47.037Z,8.57
2023-05-21T21:21:13.802Z,8.82
2023-05-21T21:23:40.460Z,9.15
2023-05-21T21:26:07.176Z,9.13
2023-05-21T21:28:33.967Z,10.07
2023-05-21T21:31:00.586Z,9.68
2023-05-21T21:33:28.336Z,9.57
2023-05-21T21:35:55.046Z,9.15
2023-05-21T21:38:21.637Z,10.18
2023-05-21T21:40:48.201Z,9.98
2023-05-21T21:43:14.836Z,10.77
2023-05-21T21:45:41.454Z,10.57
2023-05-21T21:48:08.062Z,10.02
2023-05-21T21:50:34.678Z,10.75
2023-05-21T21:53:03.469Z,10.50
2023-05-21T21:55:30.049Z,10.35
2023-05-21T21:57:56.700Z,10.07
2023-05-21T22:00:26.552Z,9.70
2023-05-21T22:02:53.793Z,9.30
2023-05-21T22:05:20.410Z,10.07
2023-05-21T22:07:47.134Z,10.23
2023-05-21T22:10:15.158Z,10.55
2023-05-21T22:12:42.030Z,10.32
2023-05-21T22:15:10.981Z,9.45
2023-05-21T22:17:38.289Z,9.90
2023-05-21T22:20:05.947Z,10.25
2023-05-21T22:22:32.503Z,10.15
2023-05-21T22:24:59.005Z,9.75
2023-05-21T22:27:25.642Z,10.18
2023-05-21T22:29:52.176Z,10.13
2023-05-21T22:32:18.749Z,10.05
2023-05-21T22:34:45.631Z,10.15
2023-05-21T22:37:12.498Z,10.50
2023-05-21T22:39:39.170Z,10.18
2023-05-21T22:42:06.085Z,11.43
2023-05-21T22:44:32.647Z,10.15
2023-05-21T22:47:00.905Z,10.10
2023-05-21T22:49:28.078Z,10.32
2023-05-21T22:51:54.578Z,10.77
2023-05-21T22:54:21.627Z,11.43
2023-05-21T22:56:49.336Z,11.65
2023-05-21T22:59:15.903Z,10.95
2023-05-21T23:01:42.479Z,11.73
2023-05-21T23:04:09.077Z,10.02
2023-05-21T23:06:35.601Z,11.38
2023-05-21T23:09:02.119Z,11.77
2023-05-21T23:11:28.638Z,11.27
2023-05-21T23:13:55.136Z,11.25
2023-05-21T23:16:22.630Z,11.30
2023-05-21T23:18:50.001Z,11.73
2023-05-21T23:21:17.075Z,11.05
2023-05-21T23:23:43.671Z,14.45
2023-05-21T23:26:10.229Z,13.35
2023-05-21T23:28:37.178Z,12.52
2023-05-21T23:31:03.753Z,11.73
2023-05-21T23:33:30.510Z,11.70
2023-05-21T23:35:57.059Z,11.15
2023-05-21T23:38:24.179Z,10.25
2023-05-21T23:40:51.071Z,11.00
2023-05-21T23:43:17.662Z,12.60
2023-05-21T23:45:44.527Z,11.25
2023-05-21T23:48:11.950Z,12.68
2023-05-21T23:50:38.619Z,11.05
2023-05-21T23:53:05.338Z,11.40
2023-05-21T23:55:32.086Z,10.70
2023-05-21T23:57:58.600Z,9.95
